createdAt,value
2023-02-11T00:00:42.579Z,68.70
2023-02-11T00:03:45.204Z,67.95
2023-02-11T00:06:47.899Z,67.33
2023-02-11T00:09:50.551Z,66.81
2023-02-11T00:12:54.074Z,66.89
2023-02-11T00:15:56.724Z,66.71
2023-02-11T00:19:02.939Z,65.80
2023-02-11T00:22:08.419Z,65.49
2023-02-11T00:25:32.014Z,65.96
2023-02-11T00:28:34.584Z,64.97
2023-02-11T00:31:37.276Z,65.37
2023-02-11T00:34:41.254Z,65.47
2023-02-11T00:37:43.847Z,65.91
2023-02-11T00:40:46.492Z,66.01
2023-02-11T00:43:49.528Z,65.65
2023-02-11T00:46:54.614Z,65.85
2023-02-11T00:49:59.288Z,65.23
2023-02-11T00:53:05.866Z,65.66
2023-02-11T00:56:11.528Z,65.46
2023-02-11T00:59:17.236Z,65.74
2023-02-11T01:02:19.847Z,65.61
2023-02-11T01:05:22.557Z,65.75
2023-02-11T01:08:25.324Z,66.03
2023-02-11T01:11:30.990Z,66.05
2023-02-11T01:14:33.595Z,66.18
2023-02-11T01:17:36.360Z,66.61
2023-02-11T01:20:39.025Z,66.47
2023-02-11T01:23:41.671Z,66.87
2023-02-11T01:26:44.208Z,66.58
2023-02-11T01:29:46.786Z,67.19
2023-02-11T01:32:49.339Z,67.25
2023-02-11T01:35:54.839Z,66.84
2023-02-11T01:38:57.342Z,66.14
2023-02-11T01:41:59.998Z,66.40
2023-02-11T01:45:23.332Z,66.99
2023-02-11T01:48:38.962Z,67.77
2023-02-11T01:51:47.088Z,67.32
2023-02-11T01:55:14.241Z,67.74
2023-02-11T01:58:16.866Z,68.04
2023-02-11T02:01:24.687Z,68.64
2023-02-11T02:04:31.797Z,68.84
2023-02-11T02:07:45.740Z,69.19
2023-02-11T02:10:54.761Z,69.48
2023-02-11T02:13:57.504Z,71.02
2023-02-11T02:17:00.112Z,69.63
2023-02-11T02:20:32.402Z,70.39
2023-02-11T02:23:53.074Z,70.58
2023-02-11T02:27:16.399Z,70.53
2023-02-11T02:30:21.952Z,71.31
2023-02-11T02:33:29.819Z,71.18
2023-02-11T02:36:54.825Z,70.90
2023-02-11T02:39:59.804Z,71.08
2023-02-11T02:43:03.167Z,71.27
2023-02-11T02:46:24.284Z,71.68
2023-02-11T02:49:26.875Z,72.01
2023-02-11T02:52:39.941Z,72.55
2023-02-11T02:55:48.728Z,72.32
2023-02-11T02:58:51.352Z,73.08
2023-02-11T03:02:24.467Z,74.74
2023-02-11T03:05:52.076Z,75.05
2023-02-11T03:09:14.750Z,75.36
2023-02-11T03:12:17.873Z,74.00
2023-02-11T03:15:22.699Z,72.09
2023-02-11T03:18:28.366Z,72.07
2023-02-11T03:21:36.577Z,71.45
2023-02-11T03:24:42.681Z,70.74
2023-02-11T03:28:06.113Z,70.92
2023-02-11T03:31:55.331Z,70.71
2023-02-11T03:35:02.106Z,69.96
2023-02-11T03:38:16.121Z,69.71
2023-02-11T03:41:21.579Z,69.39
2023-02-11T03:44:25.476Z,69.44
2023-02-11T03:47:30.477Z,69.55
2023-02-11T03:50:34.051Z,68.83
2023-02-11T03:53:39.048Z,68.92
2023-02-11T03:56:52.658Z,68.50
2023-02-11T03:59:59.499Z,69.13
2023-02-11T04:03:02.701Z,68.59
2023-02-11T04:06:05.784Z,68.14
2023-02-11T04:09:08.968Z,68.00
2023-02-11T04:12:11.599Z,68.24
2023-02-11T04:15:14.682Z,68.21
2023-02-11T04:18:17.378Z,67.98
2023-02-11T04:21:20.085Z,68.07
2023-02-11T04:24:22.731Z,67.88
2023-02-11T04:27:25.434Z,67.79
2023-02-11T04:30:28.026Z,67.73
2023-02-11T04:33:30.565Z,67.64
2023-02-11T04:36:33.052Z,67.59
2023-02-11T04:39:35.874Z,67.07
2023-02-11T04:42:38.451Z,67.71
2023-02-11T04:45:41.031Z,68.04
2023-02-11T04:48:43.833Z,67.62
2023-02-11T04:51:49.207Z,68.20
2023-02-11T04:54:52.104Z,68.56
2023-02-11T04:57:55.491Z,68.46
2023-02-11T05:01:10.046Z,68.15
2023-02-11T05:04:12.822Z,67.27
2023-02-11T05:07:15.377Z,67.79
2023-02-11T05:10:18.171Z,67.49
2023-02-11T05:13:20.715Z,68.10
2023-02-11T05:16:23.388Z,69.09
2023-02-11T05:19:26.038Z,70.58
2023-02-11T05:22:28.671Z,71.74
2023-02-11T05:25:31.291Z,72.70
2023-02-11T05:28:33.952Z,73.59
2023-02-11T05:31:36.593Z,73.52
2023-02-11T05:34:39.192Z,74.96
2023-02-11T05:37:41.791Z,75.14
2023-02-11T05:40:44.808Z,76.11
2023-02-11T05:43:53.686Z,77.83
2023-02-11T05:46:56.415Z,78.05
2023-02-11T05:49:59.034Z,78.25
2023-02-11T05:53:01.686Z,79.38
2023-02-11T05:56:04.573Z,80.00
2023-02-11T05:59:07.155Z,79.88
2023-02-11T06:02:10.700Z,79.71
2023-02-11T06:05:13.340Z,80.26
2023-02-11T06:08:16.016Z,80.52
2023-02-11T06:11:18.877Z,78.89
2023-02-11T06:14:21.411Z,78.92
2023-02-11T06:17:23.950Z,79.56
2023-02-11T06:20:26.579Z,80.25
2023-02-11T06:23:30.452Z,80.25
2023-02-11T06:26:33.159Z,79.88
2023-02-11T06:29:36.034Z,80.00
2023-02-11T06:32:44.521Z,80.11
2023-02-11T06:35:47.701Z,79.72
2023-02-11T06:38:50.519Z,80.94
2023-02-11T06:41:53.115Z,80.24
2023-02-11T06:44:55.640Z,80.13
2023-02-11T06:47:58.201Z,79.76
2023-02-11T06:51:05.710Z,80.36
2023-02-11T06:54:08.492Z,80.22
2023-02-11T06:57:10.966Z,80.36
2023-02-11T07:00:14.177Z,78.08
2023-02-11T07:03:16.835Z,76.95
2023-02-11T07:06:22.293Z,75.51
2023-02-11T07:09:24.826Z,74.39
2023-02-11T07:12:27.451Z,73.89
2023-02-11T07:15:30.043Z,74.54
2023-02-11T07:18:32.716Z,75.37
2023-02-11T07:21:35.255Z,75.42
2023-02-11T07:24:37.767Z,75.43
2023-02-11T07:27:40.314Z,76.21
2023-02-11T07:30:42.972Z,76.11
2023-02-11T07:33:46.194Z,74.43
2023-02-11T07:36:49.218Z,72.49
2023-02-11T07:39:51.823Z,71.54
2023-02-11T07:42:54.328Z,71.33
2023-02-11T07:45:56.893Z,70.95
2023-02-11T07:48:59.420Z,69.76
2023-02-11T07:52:01.959Z,70.19
2023-02-11T07:55:05.063Z,69.46
2023-02-11T07:58:07.753Z,70.08
2023-02-11T08:01:17.458Z,71.07
2023-02-11T08:04:20.099Z,71.36
2023-02-11T08:07:22.744Z,71.71
2023-02-11T08:10:28.271Z,71.86
2023-02-11T08:13:30.982Z,71.87
2023-02-11T08:16:35.872Z,70.97
2023-02-11T08:19:39.841Z,70.47
2023-02-11T08:22:42.416Z,70.42
2023-02-11T08:25:45.046Z,68.65
2023-02-11T08:28:50.255Z,68.46
2023-02-11T08:31:52.833Z,66.31
2023-02-11T08:34:55.359Z,64.20
2023-02-11T08:37:58.023Z,63.10
2023-02-11T08:41:00.887Z,61.48
2023-02-11T08:44:03.557Z,60.05
2023-02-11T08:47:06.120Z,59.47
2023-02-11T08:50:09.284Z,60.24
2023-02-11T08:53:11.843Z,58.78
2023-02-11T08:56:16.328Z,58.00
2023-02-11T08:59:18.896Z,58.77
2023-02-11T09:02:21.598Z,57.72
2023-02-11T09:05:24.555Z,57.92
2023-02-11T09:08:27.232Z,59.54
2023-02-11T09:11:32.672Z,58.60
2023-02-11T09:14:35.304Z,59.62
2023-02-11T09:17:37.894Z,60.21
2023-02-11T09:20:40.518Z,59.87
2023-02-11T09:23:47.949Z,59.44
2023-02-11T09:26:50.576Z,58.88
2023-02-11T09:29:53.204Z,57.77
2023-02-11T09:32:55.733Z,57.67
2023-02-11T09:36:01.893Z,56.81
2023-02-11T09:39:06.045Z,55.33
2023-02-11T09:42:46.072Z,55.62
2023-02-11T09:45:49.894Z,53.52
2023-02-11T09:48:54.759Z,52.80
2023-02-11T09:52:09.583Z,51.68
2023-02-11T09:55:34.197Z,51.63
2023-02-11T09:58:39.211Z,50.96
2023-02-11T10:01:49.022Z,49.00
2023-02-11T10:05:05.237Z,49.45
2023-02-11T10:08:40.712Z,48.83
2023-02-11T10:12:12.348Z,47.68
2023-02-11T10:15:48.369Z,49.13
2023-02-11T10:19:00.421Z,47.51
2023-02-11T10:22:23.140Z,46.03
2023-02-11T10:25:38.854Z,45.76
2023-02-11T10:28:44.601Z,45.37
2023-02-11T10:31:48.299Z,45.66
2023-02-11T10:34:52.380Z,46.84
2023-02-11T10:37:56.109Z,45.87
2023-02-11T10:40:58.778Z,47.12
2023-02-11T10:44:01.831Z,46.53
2023-02-11T10:47:13.032Z,46.81
2023-02-11T10:50:29.917Z,47.35
2023-02-11T10:53:33.814Z,47.52
2023-02-11T10:56:38.313Z,47.46
2023-02-11T10:59:40.923Z,48.28
2023-02-11T11:02:44.633Z,47.97
2023-02-11T11:05:57.415Z,48.63
2023-02-11T11:09:04.754Z,48.05
2023-02-11T11:12:25.504Z,47.03
2023-02-11T11:15:32.704Z,48.71
2023-02-11T11:18:35.782Z,48.18
2023-02-11T11:21:50.465Z,48.13
2023-02-11T11:24:55.339Z,47.68
2023-02-11T11:28:01.390Z,46.59
2023-02-11T11:31:04.184Z,46.24
2023-02-11T11:34:29.914Z,45.83
2023-02-11T11:37:34.583Z,45.22
2023-02-11T11:40:37.615Z,45.85
2023-02-11T11:44:14.660Z,46.25
2023-02-11T11:47:25.637Z,45.87
2023-02-11T11:50:35.259Z,44.35
2023-02-11T11:53:51.453Z,44.69
2023-02-11T11:57:00.076Z,42.67
2023-02-11T12:00:02.772Z,43.84
2023-02-11T12:03:39.694Z,43.18
2023-02-11T12:06:47.949Z,43.11
2023-02-11T12:10:11.955Z,44.56
2023-02-11T12:13:29.751Z,44.74
2023-02-11T12:16:35.293Z,45.27
2023-02-11T12:20:02.268Z,45.76
2023-02-11T12:23:25.790Z,45.86
2023-02-11T12:26:42.136Z,46.09
2023-02-11T12:30:03.303Z,46.20
2023-02-11T12:33:26.153Z,44.99
2023-02-11T12:36:47.379Z,44.41
2023-02-11T12:40:11.242Z,44.56
2023-02-11T12:43:35.588Z,43.01
2023-02-11T12:47:03.210Z,40.36
2023-02-11T12:50:30.166Z,39.39
2023-02-11T12:53:39.110Z,40.21
2023-02-11T12:56:47.920Z,40.31
2023-02-11T13:00:12.774Z,41.24
2023-02-11T13:03:32.854Z,41.13
2023-02-11T13:06:40.418Z,41.21
2023-02-11T13:09:48.945Z,40.27
2023-02-11T13:13:11.532Z,39.17
2023-02-11T13:16:37.550Z,38.96
2023-02-11T13:20:02.884Z,39.51
2023-02-11T13:23:10.202Z,39.70
2023-02-11T13:26:27.766Z,40.13
2023-02-11T13:30:04.429Z,39.81
2023-02-11T13:33:17.750Z,40.36
2023-02-11T13:36:28.877Z,39.09
2023-02-11T13:39:31.496Z,39.20
2023-02-11T13:42:47.828Z,40.11
2023-02-11T13:46:00.154Z,41.62
2023-02-11T13:49:02.805Z,40.03
2023-02-11T13:52:16.613Z,40.17
2023-02-11T13:55:23.653Z,40.76
2023-02-11T13:58:29.281Z,41.67
2023-02-11T14:02:17.852Z,41.81
2023-02-11T14:05:48.232Z,41.59
2023-02-11T14:09:10.523Z,42.93
2023-02-11T14:12:22.543Z,43.96
2023-02-11T14:15:38.210Z,44.12
2023-02-11T14:18:52.001Z,45.20
2023-02-11T14:22:02.374Z,45.37
2023-02-11T14:25:16.208Z,46.57
2023-02-11T14:28:26.881Z,46.45
2023-02-11T14:31:34.246Z,47.59
2023-02-11T14:35:44.660Z,47.77
2023-02-11T14:39:06.628Z,48.15
2023-02-11T14:42:19.981Z,48.34
2023-02-11T14:45:30.527Z,49.11
2023-02-11T14:48:38.305Z,48.35
2023-02-11T14:51:44.183Z,49.10
2023-02-11T14:54:49.312Z,49.71
2023-02-11T14:58:28.077Z,49.62
2023-02-11T15:01:40.838Z,49.84
2023-02-11T15:04:44.057Z,49.39
2023-02-11T15:07:51.915Z,49.68
2023-02-11T15:10:55.508Z,50.07
2023-02-11T15:14:01.940Z,50.10
2023-02-11T15:17:09.425Z,49.99
2023-02-11T15:20:26.861Z,50.32
2023-02-11T15:23:33.446Z,50.45
2023-02-11T15:26:36.254Z,50.90
2023-02-11T15:29:41.782Z,51.90
2023-02-11T15:32:53.254Z,51.88
2023-02-11T15:35:57.023Z,52.42
2023-02-11T15:39:42.227Z,52.83
2023-02-11T15:43:14.223Z,53.54
2023-02-11T15:46:37.913Z,53.80
2023-02-11T15:49:45.431Z,53.95
2023-02-11T15:53:00.165Z,53.23
2023-02-11T15:56:25.414Z,53.20
2023-02-11T15:59:36.255Z,52.96
2023-02-11T16:02:45.288Z,53.20
2023-02-11T16:05:47.929Z,53.91
2023-02-11T16:09:22.149Z,54.33
2023-02-11T16:12:27.283Z,53.70
2023-02-11T16:15:30.655Z,54.24
2023-02-11T16:18:52.024Z,53.27
2023-02-11T16:22:07.981Z,53.63
2023-02-11T16:25:19.279Z,52.30
2023-02-11T16:28:22.183Z,52.40
2023-02-11T16:31:33.465Z,51.87
2023-02-11T16:34:41.705Z,51.40
2023-02-11T16:37:44.425Z,51.16
2023-02-11T16:40:49.464Z,50.94
2023-02-11T16:43:52.378Z,51.84
2023-02-11T16:47:01.658Z,50.92
2023-02-11T16:50:08.564Z,51.66
2023-02-11T16:53:11.733Z,51.48
2023-02-11T16:56:19.299Z,51.85
2023-02-11T16:59:22.023Z,51.67
2023-02-11T17:02:32.253Z,51.77
2023-02-11T17:05:53.216Z,51.17
2023-02-11T17:08:57.709Z,51.82
2023-02-11T17:12:00.553Z,51.77
2023-02-11T17:15:06.632Z,51.87
2023-02-11T17:18:14.755Z,52.02
2023-02-11T17:21:29.861Z,52.00
2023-02-11T17:24:32.743Z,52.69
2023-02-11T17:27:38.612Z,52.75
2023-02-11T17:30:44.251Z,52.72
2023-02-11T17:33:56.668Z,52.58
2023-02-11T17:37:00.349Z,52.09
2023-02-11T17:40:03.208Z,52.28
2023-02-11T17:43:08.117Z,51.70
2023-02-11T17:46:13.110Z,51.36
2023-02-11T17:49:23.671Z,51.43
2023-02-11T17:52:28.284Z,50.88
2023-02-11T17:55:34.873Z,50.99
2023-02-11T17:58:37.533Z,51.08
2023-02-11T18:01:42.399Z,50.67
2023-02-11T18:04:45.316Z,50.47
2023-02-11T18:07:48.855Z,50.67
2023-02-11T18:10:51.524Z,50.78
2023-02-11T18:14:02.366Z,52.00
2023-02-11T18:17:07.696Z,52.22
2023-02-11T18:20:10.848Z,52.46
2023-02-11T18:23:13.606Z,52.12
2023-02-11T18:26:18.325Z,52.97
2023-02-11T18:29:23.596Z,53.21
2023-02-11T18:32:27.063Z,53.29
2023-02-11T18:35:32.006Z,53.33
2023-02-11T18:38:35.676Z,52.55
2023-02-11T18:41:40.774Z,53.59
2023-02-11T18:44:43.513Z,53.43
2023-02-11T18:47:46.244Z,53.70
2023-02-11T18:50:48.984Z,53.88
2023-02-11T18:53:51.590Z,54.47
2023-02-11T18:56:56.652Z,54.03
2023-02-11T18:59:59.360Z,54.99
2023-02-11T19:03:05.180Z,55.11
2023-02-11T19:06:13.120Z,54.14
2023-02-11T19:09:18.125Z,54.85
2023-02-11T19:12:21.046Z,56.27
2023-02-11T19:15:23.835Z,56.72
2023-02-11T19:18:27.636Z,57.80
2023-02-11T19:21:30.604Z,58.19
2023-02-11T19:24:33.986Z,59.01
2023-02-11T19:27:37.028Z,59.34
2023-02-11T19:30:40.446Z,59.25
2023-02-11T19:33:43.479Z,58.53
2023-02-11T19:36:46.647Z,58.72
2023-02-11T19:39:49.471Z,58.51
2023-02-11T19:42:52.318Z,58.02
2023-02-11T19:45:56.790Z,57.85
2023-02-11T19:49:00.899Z,57.57
2023-02-11T19:52:03.691Z,57.71
2023-02-11T19:55:07.155Z,57.66
2023-02-11T19:58:09.736Z,56.61
2023-02-11T20:01:16.564Z,56.11
2023-02-11T20:04:19.923Z,55.76
2023-02-11T20:07:28.215Z,55.21
2023-02-11T20:10:31.001Z,55.07
2023-02-11T20:13:34.322Z,55.40
2023-02-11T20:16:48.074Z,56.42
2023-02-11T20:19:51.789Z,57.38
2023-02-11T20:22:54.508Z,58.09
2023-02-11T20:25:57.354Z,57.79
2023-02-11T20:29:03.850Z,56.78
2023-02-11T20:32:07.594Z,55.87
2023-02-11T20:35:13.547Z,56.40
2023-02-11T20:38:16.643Z,56.32
2023-02-11T20:41:28.614Z,56.75
2023-02-11T20:44:31.445Z,56.86
2023-02-11T20:47:34.218Z,56.80
2023-02-11T20:50:37.079Z,57.86
2023-02-11T20:53:44.064Z,59.21
2023-02-11T20:56:48.226Z,59.28
2023-02-11T20:59:51.196Z,59.56
2023-02-11T21:02:53.907Z,60.07
2023-02-11T21:05:58.911Z,59.89
2023-02-11T21:09:02.257Z,60.31
2023-02-11T21:12:05.575Z,60.87
2023-02-11T21:15:12.792Z,62.21
2023-02-11T21:18:15.636Z,62.78
2023-02-11T21:21:19.614Z,62.73
2023-02-11T21:24:22.351Z,62.76
2023-02-11T21:27:31.117Z,63.18
2023-02-11T21:30:34.067Z,64.33
2023-02-11T21:33:36.708Z,65.33
2023-02-11T21:36:39.567Z,65.05
2023-02-11T21:39:43.366Z,65.51
2023-02-11T21:42:46.025Z,65.45
2023-02-11T21:45:51.298Z,65.71
2023-02-11T21:48:54.167Z,65.39
2023-02-11T21:51:56.798Z,64.20
2023-02-11T21:54:59.456Z,64.44
2023-02-11T21:58:02.228Z,64.28
2023-02-11T22:01:18.948Z,64.19
2023-02-11T22:04:21.837Z,64.31
2023-02-11T22:07:25.088Z,64.28
2023-02-11T22:10:27.672Z,63.77
2023-02-11T22:13:31.811Z,64.44
2023-02-11T22:16:41.647Z,64.03
2023-02-11T22:19:47.204Z,64.03
2023-02-11T22:22:50.918Z,64.28
2023-02-11T22:25:53.725Z,64.64
2023-02-11T22:28:57.299Z,64.24
2023-02-11T22:32:00.059Z,64.79
2023-02-11T22:35:02.788Z,64.28
2023-02-11T22:38:05.351Z,64.81
2023-02-11T22:41:10.289Z,64.66
2023-02-11T22:44:17.380Z,64.76
2023-02-11T22:47:19.908Z,64.61
2023-02-11T22:50:22.458Z,65.24
2023-02-11T22:53:25.657Z,65.21
2023-02-11T22:56:29.790Z,64.80
2023-02-11T22:59:32.446Z,64.66
2023-02-11T23:02:35.059Z,64.82
2023-02-11T23:05:41.628Z,64.84
2023-02-11T23:08:44.809Z,64.86
2023-02-11T23:11:49.477Z,64.37
2023-02-11T23:14:52.049Z,64.54
2023-02-11T23:17:57.283Z,65.56
2023-02-11T23:21:12.677Z,65.67
2023-02-11T23:24:15.766Z,65.86
2023-02-11T23:27:18.409Z,65.61
2023-02-11T23:30:22.083Z,65.74
2023-02-11T23:33:27.634Z,65.91
2023-02-11T23:36:30.649Z,66.12
2023-02-11T23:39:33.189Z,66.14
2023-02-11T23:42:35.732Z,65.85
2023-02-11T23:45:43.138Z,65.95
2023-02-11T23:48:48.485Z,65.41
2023-02-11T23:51:51.092Z,65.57
2023-02-11T23:54:53.732Z,65.46
2023-02-11T23:57:56.464Z,65.71
